createdAt,value
2019-05-23T00:02:15.967Z,18.75
2019-05-23T00:04:50.463Z,18.69
2019-05-23T00:07:23.955Z,18.62
2019-05-23T00:09:55.685Z,18.58
2019-05-23T00:12:43.559Z,18.59
2019-05-23T00:15:20.697Z,18.55
2019-05-23T00:17:50.111Z,18.59
2019-05-23T00:20:21.047Z,18.64
2019-05-23T00:22:52.184Z,18.64
2019-05-23T00:25:23.459Z,18.74
2019-05-23T00:27:54.133Z,18.86
2019-05-23T00:30:29.188Z,18.89
2019-05-23T00:33:01.083Z,18.83
2019-05-23T00:35:32.304Z,18.81
2019-05-23T00:38:04.224Z,18.80
2019-05-23T00:40:33.958Z,18.79
2019-05-23T00:43:03.693Z,18.74
2019-05-23T00:45:35.754Z,18.73
2019-05-23T00:48:06.259Z,18.74
2019-05-23T00:50:35.828Z,18.72
2019-05-23T00:53:06.135Z,18.72
2019-05-23T00:55:36.067Z,18.70
2019-05-23T00:58:05.688Z,18.70
2019-05-23T01:00:35.701Z,18.74
2019-05-23T01:03:05.399Z,18.77
2019-05-23T01:05:37.369Z,18.76
2019-05-23T01:08:07.461Z,18.74
2019-05-23T01:10:38.480Z,18.70
2019-05-23T01:13:08.615Z,18.64
2019-05-23T01:15:40.098Z,18.56
2019-05-23T01:18:10.615Z,18.53
2019-05-23T01:21:02.729Z,18.50
2019-05-23T01:23:35.976Z,18.50
2019-05-23T01:26:06.395Z,18.44
2019-05-23T01:28:36.326Z,18.43
2019-05-23T01:31:09.612Z,18.35
2019-05-23T01:33:39.845Z,18.28
2019-05-23T01:36:10.491Z,18.22
2019-05-23T01:38:40.254Z,18.13
2019-05-23T01:41:11.393Z,18.05
2019-05-23T01:43:41.810Z,17.98
2019-05-23T01:46:11.882Z,17.98
2019-05-23T01:48:42.125Z,17.90
2019-05-23T01:51:13.508Z,17.86
2019-05-23T01:53:43.442Z,17.85
2019-05-23T01:56:13.613Z,17.79
2019-05-23T01:58:43.362Z,17.61
2019-05-23T02:01:12.753Z,17.63
2019-05-23T02:03:42.562Z,17.59
2019-05-23T02:06:14.222Z,17.55
2019-05-23T02:08:44.790Z,17.47
2019-05-23T02:11:16.025Z,17.36
2019-05-23T02:13:45.571Z,17.41
2019-05-23T02:16:15.361Z,17.37
2019-05-23T02:18:45.927Z,17.31
2019-05-23T02:21:17.771Z,17.29
2019-05-23T02:23:47.397Z,17.22
2019-05-23T02:26:18.269Z,17.14
2019-05-23T02:28:47.867Z,17.10
2019-05-23T02:31:17.908Z,16.99
2019-05-23T02:33:47.424Z,16.95
2019-05-23T02:36:18.286Z,16.89
2019-05-23T02:39:06.281Z,16.85
2019-05-23T02:41:52.014Z,16.82
2019-05-23T02:44:22.924Z,16.75
2019-05-23T02:47:10.410Z,16.77
2019-05-23T02:49:40.919Z,16.71
2019-05-23T02:52:27.876Z,16.68
2019-05-23T02:54:58.159Z,16.67
2019-05-23T02:57:30.283Z,16.64
2019-05-23T03:00:11.088Z,16.64
2019-05-23T03:03:02.617Z,16.68
2019-05-23T03:05:34.995Z,16.71
2019-05-23T03:08:08.048Z,16.70
2019-05-23T03:11:10.206Z,16.74
2019-05-23T03:13:42.191Z,16.81
2019-05-23T03:16:16.695Z,16.93
2019-05-23T03:18:50.516Z,17.05
2019-05-23T03:21:21.296Z,17.20
2019-05-23T03:23:51.873Z,17.24
2019-05-23T03:26:58.189Z,17.26
2019-05-23T03:29:28.715Z,17.27
2019-05-23T03:32:24.460Z,17.19
2019-05-23T03:35:00.975Z,17.18
2019-05-23T03:37:30.782Z,17.34
2019-05-23T03:40:00.350Z,17.53
2019-05-23T03:42:30.942Z,17.78
2019-05-23T03:45:00.869Z,18.04
2019-05-23T03:47:31.201Z,18.34
2019-05-23T03:50:01.280Z,18.34
2019-05-23T03:52:31.744Z,18.34
2019-05-23T03:55:02.266Z,18.41
2019-05-23T03:57:31.692Z,18.56
2019-05-23T04:00:02.190Z,18.80
2019-05-23T04:02:32.293Z,18.97
2019-05-23T04:05:02.857Z,19.07
2019-05-23T04:07:33.625Z,19.23
2019-05-23T04:10:04.016Z,19.46
2019-05-23T04:12:34.336Z,19.64
2019-05-23T04:15:04.450Z,19.72
2019-05-23T04:17:34.155Z,19.71
2019-05-23T04:20:03.530Z,19.82
2019-05-23T04:22:33.483Z,19.98
2019-05-23T04:25:03.212Z,20.17
2019-05-23T04:27:32.659Z,20.50
2019-05-23T04:30:02.182Z,20.80
2019-05-23T04:32:32.435Z,21.10
2019-05-23T04:35:01.864Z,21.34
2019-05-23T04:37:31.542Z,21.46
2019-05-23T04:40:01.691Z,21.53
2019-05-23T04:42:31.791Z,21.57
2019-05-23T04:45:01.241Z,21.71
2019-05-23T04:47:30.963Z,21.89
2019-05-23T04:50:01.200Z,22.13
2019-05-23T04:52:31.435Z,22.18
2019-05-23T04:55:01.667Z,22.22
2019-05-23T04:57:31.647Z,22.44
2019-05-23T05:00:01.728Z,22.59
2019-05-23T05:02:31.236Z,22.96
2019-05-23T05:05:02.339Z,22.98
2019-05-23T05:07:32.615Z,23.23
2019-05-23T05:10:02.110Z,23.31
2019-05-23T05:12:31.693Z,23.51
2019-05-23T05:15:01.548Z,23.36
2019-05-23T05:17:31.127Z,23.23
2019-05-23T05:20:00.781Z,23.78
2019-05-23T05:22:30.356Z,23.91
2019-05-23T05:25:00.227Z,23.71
2019-05-23T05:27:29.854Z,23.93
2019-05-23T05:29:59.310Z,23.72
2019-05-23T05:32:44.198Z,23.78
2019-05-23T05:35:01.671Z,23.87
2019-05-23T05:37:31.251Z,23.86
2019-05-23T05:40:01.210Z,24.21
2019-05-23T05:42:31.231Z,24.08
2019-05-23T05:45:00.835Z,24.34
2019-05-23T05:47:31.756Z,24.29
2019-05-23T05:50:01.391Z,24.03
2019-05-23T05:52:31.122Z,24.40
2019-05-23T05:55:01.147Z,24.58
2019-05-23T05:57:30.608Z,24.69
2019-05-23T05:59:59.999Z,24.50
2019-05-23T06:02:30.194Z,24.72
2019-05-23T06:04:59.771Z,25.00
2019-05-23T06:07:39.351Z,24.64
2019-05-23T06:10:15.246Z,24.16
2019-05-23T06:12:45.058Z,23.53
2019-05-23T06:15:14.753Z,22.88
2019-05-23T06:17:44.169Z,22.73
2019-05-23T06:20:13.831Z,22.69
2019-05-23T06:22:44.650Z,22.64
2019-05-23T06:25:14.198Z,22.62
2019-05-23T06:27:43.929Z,22.68
2019-05-23T06:30:16.487Z,22.92
2019-05-23T06:32:47.015Z,23.07
2019-05-23T06:35:16.562Z,23.02
2019-05-23T06:37:46.892Z,23.15
2019-05-23T06:40:16.628Z,23.26
2019-05-23T06:42:50.332Z,23.32
2019-05-23T06:45:18.316Z,23.46
2019-05-23T06:47:48.535Z,23.61
2019-05-23T06:50:19.403Z,23.38
2019-05-23T06:52:48.812Z,23.29
2019-05-23T06:55:18.274Z,23.19
2019-05-23T06:57:47.651Z,23.17
2019-05-23T07:00:20.346Z,23.19
2019-05-23T07:02:50.404Z,23.14
2019-05-23T07:05:22.753Z,23.25
2019-05-23T07:07:52.217Z,23.23
2019-05-23T07:10:23.171Z,23.36
2019-05-23T07:12:52.621Z,23.42
2019-05-23T07:15:22.057Z,23.66
2019-05-23T07:17:51.620Z,23.80
2019-05-23T07:20:21.309Z,24.09
2019-05-23T07:22:50.791Z,24.38
2019-05-23T07:25:20.422Z,24.59
2019-05-23T07:27:51.154Z,24.62
2019-05-23T07:30:24.363Z,24.74
2019-05-23T07:32:54.124Z,24.97
2019-05-23T07:35:23.883Z,24.65
2019-05-23T07:37:53.459Z,24.84
2019-05-23T07:40:25.515Z,24.94
2019-05-23T07:42:55.113Z,25.03
2019-05-23T07:45:29.107Z,25.00
2019-05-23T07:48:00.419Z,24.96
2019-05-23T07:50:31.790Z,24.67
2019-05-23T07:53:11.540Z,24.67
2019-05-23T07:55:43.357Z,24.67
2019-05-23T07:58:14.190Z,24.54
2019-05-23T08:00:52.479Z,24.51
2019-05-23T08:03:23.482Z,24.46
2019-05-23T08:05:53.244Z,24.41
2019-05-23T08:08:22.755Z,24.63
2019-05-23T08:10:52.566Z,24.72
2019-05-23T08:13:22.069Z,25.01
2019-05-23T08:15:52.675Z,25.06
2019-05-23T08:18:22.524Z,25.18
2019-05-23T08:20:52.048Z,25.34
2019-05-23T08:23:21.884Z,25.28
2019-05-23T08:25:52.092Z,25.23
2019-05-23T08:28:21.986Z,25.01
2019-05-23T08:30:54.788Z,25.21
2019-05-23T08:33:24.774Z,25.30
2019-05-23T08:35:55.389Z,25.39
2019-05-23T08:38:26.503Z,25.53
2019-05-23T08:40:56.173Z,25.69
2019-05-23T08:43:25.654Z,25.67
2019-05-23T08:45:55.314Z,25.55
2019-05-23T08:48:24.891Z,25.72
2019-05-23T08:50:54.326Z,25.60
2019-05-23T08:53:25.435Z,25.64
2019-05-23T08:55:55.850Z,25.75
2019-05-23T08:58:25.830Z,25.76
2019-05-23T09:00:55.430Z,25.98
2019-05-23T09:03:24.972Z,25.93
2019-05-23T09:05:56.063Z,26.01
2019-05-23T09:08:27.131Z,26.04
2019-05-23T09:10:56.919Z,26.25
2019-05-23T09:13:31.870Z,26.25
2019-05-23T09:16:01.771Z,26.43
2019-05-23T09:18:31.197Z,26.34
2019-05-23T09:21:00.867Z,26.41
2019-05-23T09:23:30.452Z,26.65
2019-05-23T09:25:59.831Z,26.96
2019-05-23T09:28:29.881Z,27.16
2019-05-23T09:30:59.832Z,27.07
2019-05-23T09:33:29.669Z,27.14
2019-05-23T09:35:59.189Z,27.10
2019-05-23T09:38:28.803Z,27.23
2019-05-23T09:40:58.466Z,27.18
2019-05-23T09:43:28.303Z,27.00
2019-05-23T09:45:57.724Z,27.37
2019-05-23T09:48:27.593Z,27.55
2019-05-23T09:50:57.251Z,27.52
2019-05-23T09:53:27.765Z,27.08
2019-05-23T09:55:57.248Z,27.02
2019-05-23T09:58:26.668Z,27.05
2019-05-23T10:00:56.377Z,27.08
2019-05-23T10:03:25.803Z,27.16
2019-05-23T10:05:59.306Z,27.27
2019-05-23T10:08:28.815Z,27.43
2019-05-23T10:10:58.404Z,27.83
2019-05-23T10:13:38.620Z,28.13
2019-05-23T10:16:03.891Z,28.23
2019-05-23T10:18:33.463Z,28.24
2019-05-23T10:21:03.085Z,28.47
2019-05-23T10:23:37.859Z,28.27
2019-05-23T10:26:07.521Z,28.41
2019-05-23T10:28:37.066Z,28.39
2019-05-23T10:31:08.413Z,28.52
2019-05-23T10:33:38.268Z,28.43
2019-05-23T10:36:07.718Z,28.45
2019-05-23T10:38:37.788Z,28.53
2019-05-23T10:41:07.409Z,28.75
2019-05-23T10:43:36.796Z,28.73
2019-05-23T10:46:06.221Z,28.81
2019-05-23T10:48:35.822Z,29.10
2019-05-23T10:51:05.505Z,28.88
2019-05-23T10:53:35.103Z,29.53
2019-05-23T10:56:04.685Z,29.61
2019-05-23T10:58:35.410Z,29.68
2019-05-23T11:01:05.170Z,29.82
2019-05-23T11:03:34.546Z,29.79
2019-05-23T11:06:15.439Z,29.82
2019-05-23T11:08:36.476Z,30.11
2019-05-23T11:11:07.608Z,30.32
2019-05-23T11:13:37.055Z,30.45
2019-05-23T11:16:06.584Z,30.06
2019-05-23T11:18:36.060Z,29.94
2019-05-23T11:21:06.090Z,30.09
2019-05-23T11:23:39.808Z,30.29
2019-05-23T11:26:10.349Z,30.06
2019-05-23T11:28:40.123Z,30.20
2019-05-23T11:31:10.626Z,30.39
2019-05-23T11:33:40.082Z,30.69
2019-05-23T11:36:10.117Z,30.10
2019-05-23T11:38:39.632Z,30.36
2019-05-23T11:41:09.117Z,30.16
2019-05-23T11:43:39.654Z,30.74
2019-05-23T11:46:15.781Z,30.87
2019-05-23T11:48:45.361Z,30.90
2019-05-23T11:51:15.026Z,30.52
2019-05-23T11:53:50.285Z,30.12
2019-05-23T11:56:16.361Z,30.33
2019-05-23T11:58:45.904Z,30.31
2019-05-23T12:01:38.566Z,30.01
2019-05-23T12:04:15.077Z,29.97
2019-05-23T12:07:15.840Z,29.64
2019-05-23T12:09:45.258Z,29.26
2019-05-23T12:12:14.757Z,29.48
2019-05-23T12:14:44.408Z,29.67
2019-05-23T12:17:16.239Z,29.33
2019-05-23T12:19:46.602Z,29.17
2019-05-23T12:22:18.345Z,29.00
2019-05-23T12:24:47.950Z,29.01
2019-05-23T12:27:17.724Z,28.89
2019-05-23T12:29:47.217Z,28.79
2019-05-23T12:32:16.791Z,28.43
2019-05-23T12:35:07.999Z,28.48
2019-05-23T12:37:20.120Z,28.33
2019-05-23T12:39:48.682Z,28.12
2019-05-23T12:42:18.159Z,27.90
2019-05-23T12:44:47.742Z,28.24
2019-05-23T12:47:48.161Z,28.24
2019-05-23T12:50:20.374Z,28.21
2019-05-23T12:52:49.978Z,28.38
2019-05-23T12:55:19.367Z,28.32
2019-05-23T12:57:48.795Z,28.12
2019-05-23T13:00:29.788Z,27.84
2019-05-23T13:02:59.318Z,27.91
2019-05-23T13:05:28.910Z,28.07
2019-05-23T13:07:58.285Z,27.79
2019-05-23T13:10:27.879Z,27.81
2019-05-23T13:12:57.507Z,27.97
2019-05-23T13:15:27.164Z,27.82
2019-05-23T13:17:56.662Z,28.00
2019-05-23T13:20:26.200Z,28.09
2019-05-23T13:22:55.593Z,27.96
2019-05-23T13:25:26.274Z,27.97
2019-05-23T13:27:58.566Z,27.87
2019-05-23T13:30:27.399Z,27.96
2019-05-23T13:32:56.806Z,27.94
2019-05-23T13:35:27.029Z,27.59
2019-05-23T13:37:56.515Z,27.43
2019-05-23T13:40:25.937Z,27.52
2019-05-23T13:42:55.443Z,27.85
2019-05-23T13:45:25.092Z,27.58
2019-05-23T13:47:54.790Z,27.87
2019-05-23T13:50:24.534Z,27.70
2019-05-23T13:52:53.982Z,27.59
2019-05-23T13:55:23.823Z,27.23
2019-05-23T13:57:53.215Z,27.24
2019-05-23T14:00:24.899Z,27.35
2019-05-23T14:02:55.005Z,27.44
2019-05-23T14:05:24.951Z,27.35
2019-05-23T14:08:10.727Z,27.44
2019-05-23T14:10:25.999Z,27.63
2019-05-23T14:12:55.514Z,27.92
2019-05-23T14:15:28.350Z,27.70
2019-05-23T14:17:58.259Z,27.72
2019-05-23T14:20:27.868Z,27.75
2019-05-23T14:23:02.977Z,27.49
2019-05-23T14:25:32.737Z,27.68
2019-05-23T14:28:05.767Z,27.46
2019-05-23T14:31:06.570Z,27.06
2019-05-23T14:33:44.546Z,27.14
2019-05-23T14:36:32.471Z,26.72
2019-05-23T14:39:03.746Z,25.22
2019-05-23T14:41:45.227Z,25.22
2019-05-23T14:44:12.766Z,24.96
2019-05-23T14:46:53.437Z,24.41
2019-05-23T14:49:29.617Z,23.99
2019-05-23T14:52:21.210Z,23.96
2019-05-23T14:54:55.809Z,23.53
2019-05-23T14:57:25.606Z,23.66
2019-05-23T14:59:55.077Z,23.38
2019-05-23T15:02:24.609Z,23.44
2019-05-23T15:04:54.121Z,23.43
2019-05-23T15:07:23.775Z,23.55
2019-05-23T15:09:53.242Z,23.45
2019-05-23T15:12:22.731Z,23.09
2019-05-23T15:14:52.097Z,22.66
2019-05-23T15:17:21.596Z,22.74
2019-05-23T15:19:51.007Z,22.84
2019-05-23T15:22:20.580Z,22.76
2019-05-23T15:24:50.035Z,22.88
2019-05-23T15:27:19.443Z,22.47
2019-05-23T15:29:48.828Z,22.81
2019-05-23T15:32:18.265Z,23.01
2019-05-23T15:34:47.857Z,23.35
2019-05-23T15:37:17.709Z,23.54
2019-05-23T15:39:47.172Z,23.41
2019-05-23T15:42:16.771Z,23.27
2019-05-23T15:44:46.660Z,23.08
2019-05-23T15:47:16.999Z,23.07
2019-05-23T15:49:48.043Z,22.98
2019-05-23T15:52:37.848Z,22.72
2019-05-23T15:55:29.791Z,22.78
2019-05-23T15:58:04.691Z,23.03
2019-05-23T16:00:56.541Z,23.08
2019-05-23T16:03:32.602Z,22.73
2019-05-23T16:06:02.493Z,22.08
2019-05-23T16:08:32.415Z,22.25
2019-05-23T16:11:02.140Z,22.35
2019-05-23T16:13:32.524Z,22.10
2019-05-23T16:16:02.294Z,22.31
2019-05-23T16:18:33.735Z,22.18
2019-05-23T16:21:03.364Z,22.01
2019-05-23T16:23:32.722Z,21.49
2019-05-23T16:26:02.088Z,21.36
2019-05-23T16:28:31.593Z,21.16
2019-05-23T16:31:01.074Z,20.97
2019-05-23T16:33:30.565Z,20.86
2019-05-23T16:36:00.129Z,20.74
2019-05-23T16:38:29.755Z,20.79
2019-05-23T16:40:59.233Z,20.93
2019-05-23T16:43:28.801Z,20.76
2019-05-23T16:45:58.371Z,20.73
2019-05-23T16:48:28.036Z,20.77
2019-05-23T16:50:57.507Z,20.73
2019-05-23T16:53:27.003Z,20.82
2019-05-23T16:56:05.664Z,20.73
2019-05-23T16:58:47.352Z,20.76
2019-05-23T17:01:47.088Z,20.46
2019-05-23T17:04:41.475Z,20.37
2019-05-23T17:07:41.748Z,20.30
2019-05-23T17:10:17.262Z,20.30
2019-05-23T17:13:01.563Z,20.27
2019-05-23T17:15:50.111Z,20.30
2019-05-23T17:18:37.341Z,20.25
2019-05-23T17:21:37.864Z,20.32
2019-05-23T17:24:13.697Z,20.26
2019-05-23T17:27:05.952Z,20.35
2019-05-23T17:29:40.598Z,20.32
2019-05-23T17:32:12.087Z,20.24
2019-05-23T17:34:41.768Z,20.26
2019-05-23T17:37:12.984Z,20.17
2019-05-23T17:39:43.834Z,20.24
2019-05-23T17:42:13.318Z,20.17
2019-05-23T17:44:42.942Z,20.12
2019-05-23T17:47:12.514Z,20.03
2019-05-23T17:49:42.272Z,20.05
2019-05-23T17:52:11.991Z,20.07
2019-05-23T17:54:41.638Z,19.97
2019-05-23T17:57:11.491Z,20.04
2019-05-23T17:59:41.234Z,20.01
2019-05-23T18:02:11.597Z,20.07
2019-05-23T18:04:41.206Z,20.02
2019-05-23T18:07:10.628Z,19.82
2019-05-23T18:09:40.112Z,19.79
2019-05-23T18:12:10.577Z,19.72
2019-05-23T18:14:40.579Z,19.61
2019-05-23T18:17:11.477Z,19.55
2019-05-23T18:19:41.248Z,19.51
2019-05-23T18:22:14.155Z,19.55
2019-05-23T18:24:44.100Z,19.53
2019-05-23T18:27:13.874Z,19.54
2019-05-23T18:29:43.950Z,19.52
2019-05-23T18:32:21.047Z,19.45
2019-05-23T18:34:50.774Z,19.57
2019-05-23T18:37:20.330Z,19.55
2019-05-23T18:39:49.949Z,19.59
2019-05-23T18:42:20.046Z,19.61
2019-05-23T18:44:50.593Z,19.60
2019-05-23T18:47:29.038Z,19.63
2019-05-23T18:49:58.816Z,19.69
2019-05-23T18:52:28.868Z,19.69
2019-05-23T18:54:58.336Z,19.68
2019-05-23T18:57:28.097Z,19.65
2019-05-23T18:59:57.585Z,19.57
2019-05-23T19:02:27.472Z,19.56
2019-05-23T19:04:57.466Z,19.53
2019-05-23T19:07:27.379Z,19.52
2019-05-23T19:09:56.886Z,19.49
2019-05-23T19:12:26.561Z,19.43
2019-05-23T19:14:55.946Z,19.34
2019-05-23T19:17:26.124Z,19.44
2019-05-23T19:19:55.990Z,19.44
2019-05-23T19:22:25.531Z,19.46
2019-05-23T19:24:55.032Z,19.39
2019-05-23T19:27:24.573Z,19.31
2019-05-23T19:29:54.396Z,19.31
2019-05-23T19:32:23.896Z,19.25
2019-05-23T19:34:53.628Z,19.29
2019-05-23T19:37:23.143Z,19.28
2019-05-23T19:39:52.947Z,19.25
2019-05-23T19:42:22.976Z,19.17
2019-05-23T19:44:52.742Z,19.14
2019-05-23T19:47:22.146Z,19.12
2019-05-23T19:49:51.754Z,19.03
2019-05-23T19:52:21.547Z,19.05
2019-05-23T19:54:52.931Z,19.08
2019-05-23T19:57:22.876Z,19.08
2019-05-23T19:59:52.447Z,19.08
2019-05-23T20:02:40.940Z,19.06
2019-05-23T20:05:26.266Z,19.04
2019-05-23T20:07:55.726Z,18.88
2019-05-23T20:10:26.594Z,18.75
2019-05-23T20:12:56.259Z,18.48
2019-05-23T20:15:25.680Z,18.21
2019-05-23T20:17:55.272Z,18.04
2019-05-23T20:20:24.875Z,17.90
2019-05-23T20:22:54.247Z,17.79
2019-05-23T20:25:25.339Z,17.74
2019-05-23T20:27:54.913Z,17.68
2019-05-23T20:30:51.525Z,17.62
2019-05-23T20:33:21.040Z,17.58
2019-05-23T20:35:50.815Z,17.50
2019-05-23T20:38:21.550Z,17.38
2019-05-23T20:40:51.167Z,17.25
2019-05-23T20:43:20.640Z,17.08
2019-05-23T20:45:50.225Z,16.89
2019-05-23T20:48:19.843Z,16.70
2019-05-23T20:50:49.425Z,16.57
2019-05-23T20:53:18.915Z,16.46
2019-05-23T20:55:48.418Z,16.33
2019-05-23T20:58:17.974Z,16.34
2019-05-23T21:01:05.119Z,16.36
2019-05-23T21:03:36.282Z,16.35
2019-05-23T21:06:07.155Z,16.39
2019-05-23T21:08:36.975Z,16.44
2019-05-23T21:11:06.337Z,16.50
2019-05-23T21:13:36.175Z,16.54
2019-05-23T21:16:06.038Z,16.51
2019-05-23T21:18:35.384Z,16.52
2019-05-23T21:21:05.433Z,16.47
2019-05-23T21:23:35.676Z,16.50
2019-05-23T21:26:06.620Z,16.48
2019-05-23T21:28:37.077Z,16.46
2019-05-23T21:31:12.868Z,16.40
2019-05-23T21:33:42.229Z,16.33
2019-05-23T21:36:11.596Z,16.26
2019-05-23T21:38:41.189Z,16.22
2019-05-23T21:41:10.712Z,16.23
2019-05-23T21:43:40.099Z,16.31
2019-05-23T21:46:09.527Z,16.36
2019-05-23T21:48:39.103Z,16.43
2019-05-23T21:51:08.622Z,16.43
2019-05-23T21:53:38.050Z,16.40
2019-05-23T21:56:08.953Z,16.35
2019-05-23T21:58:38.479Z,16.47
2019-05-23T22:01:30.036Z,16.44
2019-05-23T22:04:21.131Z,16.44
2019-05-23T22:06:55.952Z,16.41
2019-05-23T22:09:26.623Z,16.39
2019-05-23T22:11:56.662Z,16.35
2019-05-23T22:14:26.182Z,16.35
2019-05-23T22:16:55.552Z,16.34
2019-05-23T22:19:26.175Z,16.35
2019-05-23T22:21:55.861Z,16.38
2019-05-23T22:24:25.437Z,16.33
2019-05-23T22:26:54.781Z,16.33
2019-05-23T22:29:24.903Z,16.35
2019-05-23T22:31:56.583Z,16.28
2019-05-23T22:34:40.889Z,16.41
2019-05-23T22:37:16.301Z,16.38
2019-05-23T22:39:45.908Z,16.39
2019-05-23T22:42:15.891Z,16.44
2019-05-23T22:44:45.356Z,16.42
2019-05-23T22:47:15.062Z,16.46
2019-05-23T22:49:44.466Z,16.55
2019-05-23T22:52:13.876Z,16.48
2019-05-23T22:54:43.506Z,16.42
2019-05-23T22:57:14.094Z,16.54
2019-05-23T22:59:43.656Z,16.58
2019-05-23T23:02:15.741Z,16.58
2019-05-23T23:04:45.253Z,16.48
2019-05-23T23:07:16.109Z,16.44
2019-05-23T23:09:45.763Z,16.49
2019-05-23T23:12:15.309Z,16.38
2019-05-23T23:14:44.887Z,16.49
2019-05-23T23:17:15.442Z,16.40
2019-05-23T23:19:44.960Z,16.43
2019-05-23T23:22:14.550Z,16.44
2019-05-23T23:24:44.148Z,16.50
2019-05-23T23:27:13.512Z,16.53
2019-05-23T23:29:43.033Z,16.53
2019-05-23T23:32:12.656Z,16.50
2019-05-23T23:34:42.020Z,16.41
2019-05-23T23:37:11.391Z,16.40
2019-05-23T23:39:40.967Z,16.43
2019-05-23T23:42:11.406Z,16.48
2019-05-23T23:44:39.789Z,16.46
2019-05-23T23:47:27.092Z,16.49
2019-05-23T23:50:14.506Z,16.45
2019-05-23T23:53:01.686Z,16.40
2019-05-23T23:55:48.512Z,16.34
2019-05-23T23:58:16.948Z,16.34
